createdAt,value
2019-02-14T00:22:15.470Z,100382.00
2019-02-14T00:32:18.444Z,100373.77
2019-02-14T00:34:48.036Z,100370.28
2019-02-14T00:37:17.971Z,100361.84
2019-02-14T00:39:47.578Z,100358.63
2019-02-14T00:42:17.187Z,100354.65
2019-02-14T00:44:46.751Z,100347.94
2019-02-14T00:47:16.385Z,100347.45
2019-02-14T00:49:45.958Z,100332.00
2019-02-14T00:52:15.546Z,100328.41
2019-02-14T00:54:45.193Z,100321.41
2019-02-14T00:57:14.785Z,100319.32
2019-02-14T00:59:44.386Z,100312.86
2019-02-14T01:02:14.046Z,100318.26
2019-02-14T01:04:43.626Z,100322.02
2019-02-14T01:07:13.247Z,100327.44
2019-02-14T01:09:42.877Z,100324.28
2019-02-14T01:15:02.789Z,100324.89
2019-02-14T01:17:32.387Z,100339.63
2019-02-14T01:20:01.981Z,100333.89
2019-02-14T01:22:31.635Z,100338.98
2019-02-14T01:25:01.207Z,100335.77
2019-02-14T01:27:30.812Z,100342.31
2019-02-14T01:30:00.424Z,100341.14
2019-02-14T01:32:29.999Z,100339.63
2019-02-14T01:34:59.603Z,100342.77
2019-02-14T01:37:29.248Z,100329.91
2019-02-14T01:39:58.839Z,100340.41
2019-02-14T01:42:28.454Z,100334.92
2019-02-14T01:44:58.065Z,100332.27
2019-02-14T01:47:27.657Z,100327.92
2019-02-14T01:49:57.282Z,100322.81
2019-02-14T01:52:26.997Z,100316.78
2019-02-14T01:54:56.555Z,100312.20
2019-02-14T01:57:26.163Z,100309.07
2019-02-14T01:59:55.823Z,100309.17
2019-02-14T02:02:25.412Z,100307.84
2019-02-14T02:04:54.964Z,100306.03
2019-02-14T02:07:24.688Z,100313.73
2019-02-14T02:09:54.352Z,100311.50
2019-02-14T02:12:24.023Z,100306.90
2019-02-14T02:14:53.664Z,100301.50
2019-02-14T02:17:23.293Z,100293.55
2019-02-14T02:19:52.872Z,100292.39
2019-02-14T02:22:22.513Z,100293.05
2019-02-14T02:24:52.120Z,100291.99
2019-02-14T02:27:21.706Z,100292.27
2019-02-14T02:29:51.391Z,100285.50
2019-02-14T02:32:20.957Z,100282.54
2019-02-14T02:34:50.581Z,100284.80
2019-02-14T02:37:20.228Z,100293.59
2019-02-14T02:39:49.813Z,100299.81
2019-02-14T02:42:19.383Z,100293.95
2019-02-14T02:44:49.138Z,100294.73
2019-02-14T02:47:18.695Z,100305.92
2019-02-14T02:49:48.262Z,100302.92
2019-02-14T02:52:17.913Z,100309.25
2019-02-14T02:54:47.467Z,100301.08
2019-02-14T02:57:17.035Z,100311.83
2019-02-14T02:59:46.691Z,100314.78
2019-02-14T03:02:16.253Z,100305.77
2019-02-14T03:04:45.831Z,100309.28
2019-02-14T03:07:15.506Z,100301.30
2019-02-14T03:09:45.092Z,100303.48
2019-02-14T03:12:14.695Z,100288.44
2019-02-14T03:14:44.302Z,100292.51
2019-02-14T03:17:13.904Z,100294.13
2019-02-14T03:19:43.472Z,100298.47
2019-02-14T03:22:13.110Z,100302.92
2019-02-14T03:24:42.675Z,100295.36
2019-02-14T03:27:12.260Z,100298.36
2019-02-14T03:29:41.889Z,100292.42
2019-02-14T03:32:11.474Z,100279.80
2019-02-14T03:34:41.049Z,100280.56
2019-02-14T03:37:10.657Z,100271.39
2019-02-14T03:39:40.243Z,100268.16
2019-02-14T03:42:09.849Z,100274.41
2019-02-14T03:44:39.506Z,100267.70
2019-02-14T03:47:09.096Z,100264.24
2019-02-14T03:49:38.691Z,100261.08
2019-02-14T03:52:08.350Z,100261.21
2019-02-14T03:54:37.941Z,100252.16
2019-02-14T03:57:07.487Z,100247.50
2019-02-14T03:59:37.136Z,100244.36
2019-02-14T04:02:06.736Z,100245.33
2019-02-14T04:04:36.310Z,100246.48
2019-02-14T04:07:05.953Z,100245.73
2019-02-14T04:09:35.520Z,100244.56
2019-02-14T04:12:05.127Z,100249.38
2019-02-14T04:14:34.804Z,100247.50
2019-02-14T04:17:04.432Z,100250.52
2019-02-14T04:19:34.011Z,100254.36
2019-02-14T04:22:03.651Z,100264.56
2019-02-14T04:24:33.244Z,100264.08
2019-02-14T04:27:02.821Z,100255.03
2019-02-14T04:29:32.456Z,100263.58
2019-02-14T04:32:02.054Z,100259.75
2019-02-14T04:34:31.648Z,100260.48
2019-02-14T04:37:01.269Z,100253.67
2019-02-14T04:39:30.881Z,100254.58
2019-02-14T04:42:00.441Z,100253.25
2019-02-14T04:44:30.082Z,100241.98
2019-02-14T04:46:59.680Z,100253.92
2019-02-14T04:49:29.333Z,100246.07
2019-02-14T04:51:58.966Z,100255.02
2019-02-14T04:54:28.532Z,100247.81
2019-02-14T04:56:58.114Z,100249.08
2019-02-14T04:59:27.790Z,100261.97
2019-02-14T05:01:57.377Z,100250.29
2019-02-14T05:04:26.963Z,100243.12
2019-02-14T05:06:56.596Z,100240.57
2019-02-14T05:09:26.206Z,100245.12
2019-02-14T05:11:55.783Z,100245.00
2019-02-14T05:14:25.423Z,100244.17
2019-02-14T05:16:54.974Z,100240.63
2019-02-14T05:19:24.614Z,100241.64
2019-02-14T05:21:54.253Z,100241.58
2019-02-14T05:24:23.845Z,100244.38
2019-02-14T05:26:53.433Z,100249.39
2019-02-14T05:29:23.067Z,100256.39
2019-02-14T05:31:52.697Z,100250.47
2019-02-14T05:34:22.279Z,100251.79
2019-02-14T05:36:53.803Z,100258.87
2019-02-14T05:47:12.632Z,100266.47
2019-02-14T05:53:31.937Z,100264.36
2019-02-14T05:58:33.942Z,100274.85
2019-02-14T06:01:03.740Z,100278.68
2019-02-14T06:06:22.098Z,100284.56
2019-02-14T06:08:51.714Z,100287.03
2019-02-14T06:11:21.307Z,100294.09
2019-02-14T06:13:50.957Z,100282.81
2019-02-14T06:16:20.531Z,100298.37
2019-02-14T06:18:50.110Z,100305.41
2019-02-14T06:21:19.715Z,100293.36
2019-02-14T06:23:49.327Z,100290.13
2019-02-14T06:26:18.968Z,100294.67
2019-02-14T06:28:48.636Z,100290.83
2019-02-14T06:31:18.250Z,100288.18
2019-02-14T06:33:47.874Z,100308.48
2019-02-14T06:36:17.624Z,100311.45
2019-02-14T06:38:47.697Z,100303.01
2019-02-14T06:41:17.359Z,100301.48
2019-02-14T06:43:47.003Z,100299.16
2019-02-14T06:46:16.592Z,100304.58
2019-02-14T06:48:46.186Z,100300.63
2019-02-14T06:51:15.854Z,100306.11
2019-02-14T06:53:45.441Z,100311.78
2019-02-14T06:56:15.019Z,100306.53
2019-02-14T06:58:44.678Z,100295.70
2019-02-14T07:01:14.249Z,100295.06
2019-02-14T07:03:43.855Z,100288.45
2019-02-14T07:06:13.532Z,100302.95
2019-02-14T07:08:43.122Z,100311.33
2019-02-14T07:11:12.701Z,100298.75
2019-02-14T07:13:42.357Z,100312.93
2019-02-14T07:16:11.996Z,100302.39
2019-02-14T07:18:41.565Z,100308.10
2019-02-14T07:21:11.200Z,100299.17
2019-02-14T07:23:40.842Z,100301.77
2019-02-14T07:26:10.431Z,100294.08
2019-02-14T07:28:40.084Z,100302.14
2019-02-14T07:31:09.709Z,100296.98
2019-02-14T07:33:39.288Z,100301.82
2019-02-14T07:36:08.958Z,100304.48
2019-02-14T07:38:38.601Z,100303.17
2019-02-14T07:41:08.197Z,100303.56
2019-02-14T07:43:37.947Z,100282.13
2019-02-14T07:46:07.567Z,100291.98
2019-02-14T07:48:37.174Z,100285.14
2019-02-14T07:51:06.852Z,100288.94
2019-02-14T07:53:36.458Z,100280.38
2019-02-14T07:56:06.061Z,100268.05
2019-02-14T07:58:35.722Z,100260.34
2019-02-14T08:01:05.549Z,100280.61
2019-02-14T08:03:35.271Z,100272.50
2019-02-14T08:06:04.949Z,100279.28
2019-02-14T08:08:34.593Z,100286.88
2019-02-14T08:11:04.290Z,100287.07
2019-02-14T08:13:33.958Z,100282.66
2019-02-14T08:16:03.561Z,100274.25
2019-02-14T08:18:33.165Z,100272.29
2019-02-14T08:21:02.850Z,100277.70
2019-02-14T08:23:32.460Z,100276.72
2019-02-14T08:26:10.422Z,100287.25
2019-02-14T08:28:52.751Z,100279.38
2019-02-14T08:31:22.342Z,100275.03
2019-02-14T08:33:51.913Z,100280.42
2019-02-14T08:36:21.524Z,100282.02
2019-02-14T08:38:51.162Z,100271.58
2019-02-14T08:41:20.751Z,100278.44
2019-02-14T08:43:50.429Z,100276.76
2019-02-14T08:46:20.030Z,100275.38
2019-02-14T08:48:49.654Z,100272.41
2019-02-14T08:51:19.307Z,100253.47
2019-02-14T08:53:48.969Z,100254.13
2019-02-14T08:56:18.569Z,100255.32
2019-02-14T08:58:48.219Z,100247.71
2019-02-14T09:01:17.828Z,100250.22
2019-02-14T09:03:47.466Z,100244.44
2019-02-14T09:06:17.107Z,100236.90
2019-02-14T09:08:46.720Z,100239.81
2019-02-14T09:11:16.399Z,100226.53
2019-02-14T09:13:46.064Z,100225.78
2019-02-14T09:16:15.657Z,100221.20
2019-02-14T09:18:45.235Z,100222.67
2019-02-14T09:21:14.862Z,100228.98
2019-02-14T09:23:44.457Z,100224.14
2019-02-14T09:26:14.060Z,100219.73
2019-02-14T09:28:43.732Z,100215.91
2019-02-14T09:31:13.321Z,100207.34
2019-02-14T09:33:42.927Z,100218.22
2019-02-14T09:36:12.558Z,100219.22
2019-02-14T09:38:42.117Z,100216.97
2019-02-14T09:41:11.727Z,100215.27
2019-02-14T09:43:41.305Z,100207.49
2019-02-14T09:46:10.916Z,100205.52
2019-02-14T09:52:09.436Z,100195.73
2019-02-14T09:54:39.079Z,100200.91
2019-02-14T09:57:08.740Z,100197.83
2019-02-14T09:59:38.412Z,100196.37
2019-02-14T10:02:08.044Z,100195.84
2019-02-14T10:04:37.638Z,100177.41
2019-02-14T10:07:07.280Z,100168.24
2019-02-14T10:09:36.860Z,100162.00
2019-02-14T10:12:06.512Z,100162.67
2019-02-14T10:14:36.094Z,100146.41
2019-02-14T10:17:05.690Z,100128.27
2019-02-14T10:19:35.349Z,100133.66
2019-02-14T10:22:04.963Z,100110.17
2019-02-14T10:24:34.678Z,100114.45
2019-02-14T10:27:04.310Z,100102.72
2019-02-14T10:29:33.994Z,100087.11
2019-02-14T10:34:40.522Z,100087.83
2019-02-14T10:37:10.142Z,100092.66
2019-02-14T10:39:39.725Z,100086.88
2019-02-14T10:42:09.386Z,100094.00
2019-02-14T10:44:38.980Z,100095.92
2019-02-14T10:47:08.564Z,100106.02
2019-02-14T10:49:38.202Z,100095.84
2019-02-14T10:52:08.205Z,100097.23
2019-02-14T10:54:37.798Z,100090.64
2019-02-14T10:57:07.448Z,100090.80
2019-02-14T10:59:37.049Z,100093.12
2019-02-14T11:02:27.039Z,100085.97
2019-02-14T11:04:56.612Z,100087.84
2019-02-14T11:07:26.199Z,100079.38
2019-02-14T11:09:55.850Z,100072.78
2019-02-14T11:12:25.424Z,100072.08
2019-02-14T11:14:54.996Z,100062.87
2019-02-14T11:17:24.636Z,100055.25
2019-02-14T11:19:54.265Z,100046.66
2019-02-14T11:22:23.869Z,100050.55
2019-02-14T11:24:53.524Z,100054.95
2019-02-14T11:27:23.132Z,100048.30
2019-02-14T11:29:52.715Z,100054.59
2019-02-14T11:32:22.360Z,100034.66
2019-02-14T11:34:51.958Z,100035.23
2019-02-14T11:37:21.587Z,100023.81
2019-02-14T11:39:51.223Z,100020.06
2019-02-14T11:42:21.885Z,100016.87
2019-02-14T11:44:52.139Z,100008.70
2019-02-14T11:47:21.808Z,100016.82
2019-02-14T11:49:51.403Z,100014.22
2019-02-14T11:52:20.993Z,100012.25
2019-02-14T11:54:50.652Z,100012.58
2019-02-14T11:57:20.251Z,99995.22
2019-02-14T11:59:49.836Z,99991.44
2019-02-14T12:02:19.498Z,99979.48
2019-02-14T12:04:49.082Z,99984.34
2019-02-14T12:07:18.692Z,99977.77
2019-02-14T12:09:48.339Z,99986.72
2019-02-14T12:12:17.928Z,99980.70
2019-02-14T12:14:47.513Z,99985.37
2019-02-14T12:17:17.158Z,99971.25
2019-02-14T12:19:48.769Z,99981.35
2019-02-14T12:22:18.063Z,99981.27
2019-02-14T12:24:47.737Z,99967.39
2019-02-14T12:27:17.690Z,99969.25
2019-02-14T12:29:47.291Z,99955.34
2019-02-14T12:32:16.951Z,99948.03
2019-02-14T12:34:46.552Z,99934.63
2019-02-14T12:37:16.239Z,99934.06
2019-02-14T12:39:45.911Z,99933.83
2019-02-14T12:42:15.496Z,99924.34
2019-02-14T12:44:45.098Z,99928.84
2019-02-14T12:47:14.733Z,99928.11
2019-02-14T12:49:44.346Z,99918.33
2019-02-14T12:52:13.951Z,99926.13
2019-02-14T12:54:43.599Z,99927.23
2019-02-14T12:57:13.178Z,99925.84
2019-02-14T12:59:42.786Z,99921.62
2019-02-14T13:02:12.473Z,99921.63
2019-02-14T13:04:42.090Z,99912.03
2019-02-14T13:07:11.776Z,99914.99
2019-02-14T13:09:41.439Z,99913.98
2019-02-14T13:12:11.010Z,99917.08
2019-02-14T13:14:40.621Z,99911.94
2019-02-14T13:17:10.270Z,99916.13
2019-02-14T13:19:39.864Z,99911.99
2019-02-14T13:22:09.460Z,99909.86
2019-02-14T13:24:39.109Z,99919.11
2019-02-14T13:27:08.752Z,99915.69
2019-02-14T13:29:38.350Z,99915.17
2019-02-14T13:32:08.007Z,99910.77
2019-02-14T13:34:37.603Z,99920.38
2019-02-14T13:37:07.281Z,99923.23
2019-02-14T13:39:36.932Z,99916.38
2019-02-14T13:42:06.605Z,99931.02
2019-02-14T13:44:36.223Z,99922.40
2019-02-14T13:47:05.852Z,99916.47
2019-02-14T13:49:35.547Z,99914.63
2019-02-14T13:52:05.119Z,99914.77
2019-02-14T13:54:34.802Z,99913.23
2019-02-14T13:57:04.530Z,99909.66
2019-02-14T13:59:34.144Z,99901.70
2019-02-14T14:02:03.798Z,99907.72
2019-02-14T14:04:33.422Z,99894.48
2019-02-14T14:07:03.052Z,99899.03
2019-02-14T14:09:38.429Z,99900.76
2019-02-14T14:12:04.063Z,99898.08
2019-02-14T14:14:33.633Z,99905.12
2019-02-14T14:17:05.549Z,99898.61
2019-02-14T14:19:35.210Z,99900.80
2019-02-14T14:22:04.841Z,99896.23
2019-02-14T14:24:34.544Z,99894.98
2019-02-14T14:27:04.158Z,99897.38
2019-02-14T14:29:33.785Z,99898.47
2019-02-14T14:32:03.435Z,99903.91
2019-02-14T14:34:33.054Z,99896.56
2019-02-14T14:37:02.671Z,99897.84
2019-02-14T14:39:32.348Z,99897.83
2019-02-14T14:44:50.830Z,99898.80
2019-02-14T14:47:22.493Z,99889.50
2019-02-14T14:49:52.087Z,99886.72
2019-02-14T14:52:21.775Z,99885.92
2019-02-14T14:54:51.387Z,99882.54
2019-02-14T14:57:20.999Z,99884.19
2019-02-14T14:59:50.683Z,99889.00
2019-02-14T15:02:20.332Z,99884.22
2019-02-14T15:04:49.982Z,99881.09
2019-02-14T15:07:19.672Z,99884.64
2019-02-14T15:09:57.230Z,99883.33
2019-02-14T15:12:20.674Z,99882.02
2019-02-14T15:14:50.343Z,99875.88
2019-02-14T15:17:19.937Z,99873.95
2019-02-14T15:19:49.571Z,99873.50
2019-02-14T15:22:19.217Z,99879.75
2019-02-14T15:24:48.833Z,99879.79
2019-02-14T15:27:18.442Z,99876.41
2019-02-14T15:29:48.101Z,99880.34
2019-02-14T15:32:17.749Z,99881.13
2019-02-14T15:34:47.362Z,99889.70
2019-02-14T15:37:17.955Z,99892.71
2019-02-14T15:39:48.665Z,99906.07
2019-02-14T15:42:18.298Z,99909.66
2019-02-14T15:44:47.968Z,99910.50
2019-02-14T15:47:17.603Z,99906.66
2019-02-14T15:49:49.249Z,99904.27
2019-02-14T15:52:19.062Z,99914.47
2019-02-14T15:54:48.677Z,99910.06
2019-02-14T15:57:20.360Z,99914.55
2019-02-14T15:59:50.133Z,99913.30
2019-02-14T16:02:19.726Z,99915.05
2019-02-14T16:04:50.752Z,99912.70
2019-02-14T16:07:21.105Z,99917.28
2019-02-14T16:09:50.732Z,99916.81
2019-02-14T16:12:21.907Z,99920.66
2019-02-14T16:14:52.104Z,99924.18
2019-02-14T16:17:21.722Z,99927.91
2019-02-14T16:19:51.352Z,99929.35
2019-02-14T16:22:29.674Z,99922.78
2019-02-14T16:24:52.423Z,99929.62
2019-02-14T16:27:22.526Z,99939.63
2019-02-14T16:29:53.878Z,99943.44
2019-02-14T16:32:23.502Z,99948.16
2019-02-14T16:34:53.117Z,99950.13
2019-02-14T16:37:22.770Z,99949.08
2019-02-14T16:39:54.265Z,99942.52
2019-02-14T16:42:23.733Z,99940.42
2019-02-14T16:44:53.427Z,99936.09
2019-02-14T16:47:23.049Z,99933.09
2019-02-14T16:49:52.705Z,99941.31
2019-02-14T16:52:22.357Z,99941.25
2019-02-14T16:54:51.987Z,99933.25
2019-02-14T16:57:21.611Z,99936.38
2019-02-14T16:59:51.266Z,99938.00
2019-02-14T17:02:20.936Z,99927.66
2019-02-14T17:04:50.566Z,99934.72
2019-02-14T17:07:20.235Z,99938.28
2019-02-14T17:09:49.874Z,99928.47
2019-02-14T17:12:19.710Z,99925.02
2019-02-14T17:14:49.376Z,99930.74
2019-02-14T17:17:27.536Z,99930.63
2019-02-14T17:19:50.334Z,99924.16
2019-02-14T17:22:27.128Z,99926.42
2019-02-14T17:24:56.748Z,99921.38
2019-02-14T17:27:26.395Z,99919.95
2019-02-14T17:29:56.025Z,99917.46
2019-02-14T17:32:25.636Z,99908.99
2019-02-14T17:34:55.234Z,99910.36
2019-02-14T17:37:24.902Z,99910.61
2019-02-14T17:39:54.507Z,99906.52
2019-02-14T17:42:24.140Z,99903.55
2019-02-14T17:44:53.848Z,99897.71
2019-02-14T17:47:23.473Z,99892.16
2019-02-14T17:49:53.064Z,99891.89
2019-02-14T17:52:22.755Z,99893.96
2019-02-14T17:54:52.361Z,99888.11
2019-02-14T17:57:21.973Z,99893.03
2019-02-14T17:59:51.640Z,99891.08
2019-02-14T18:08:04.512Z,99874.61
2019-02-14T18:10:34.142Z,99876.29
2019-02-14T18:13:03.740Z,99871.41
2019-02-14T18:15:33.373Z,99871.81
2019-02-14T18:18:03.026Z,99869.14
2019-02-14T18:20:32.691Z,99865.30
2019-02-14T18:23:02.322Z,99870.39
2019-02-14T18:25:31.983Z,99871.73
2019-02-14T18:28:01.570Z,99875.75
2019-02-14T18:30:31.180Z,99874.10
2019-02-14T18:33:00.841Z,99865.15
2019-02-14T18:35:30.493Z,99871.16
2019-02-14T18:38:00.098Z,99871.30
2019-02-14T18:40:29.757Z,99872.13
2019-02-14T18:42:59.388Z,99875.81
2019-02-14T18:45:29.010Z,99882.30
2019-02-14T18:47:58.634Z,99887.70
2019-02-14T18:50:28.275Z,99886.18
2019-02-14T18:52:57.903Z,99887.33
2019-02-14T18:55:27.571Z,99892.20
2019-02-14T18:57:57.198Z,99888.94
2019-02-14T19:00:26.800Z,99886.67
2019-02-14T19:02:56.462Z,99882.48
2019-02-14T19:05:26.158Z,99886.80
2019-02-14T19:07:55.803Z,99887.89
2019-02-14T19:10:25.430Z,99892.55
2019-02-14T19:12:55.017Z,99888.58
2019-02-14T19:15:24.672Z,99893.27
2019-02-14T19:17:54.372Z,99889.14
2019-02-14T19:20:24.024Z,99895.22
2019-02-14T19:22:53.668Z,99889.77
2019-02-14T19:25:23.349Z,99889.94
2019-02-14T19:28:30.279Z,99893.20
2019-02-14T19:34:33.163Z,99896.65
2019-02-14T19:37:02.835Z,99895.45
2019-02-14T19:39:32.461Z,99891.27
2019-02-14T19:42:02.089Z,99888.42
2019-02-14T19:44:31.774Z,99882.74
2019-02-14T19:47:01.385Z,99885.61
2019-02-14T19:49:30.988Z,99886.28
2019-02-14T19:52:00.689Z,99890.23
2019-02-14T19:54:30.416Z,99896.97
2019-02-14T19:57:00.150Z,99899.50
2019-02-14T19:59:29.816Z,99895.95
2019-02-14T20:01:59.441Z,99898.68
2019-02-14T20:04:29.029Z,99894.95
2019-02-14T20:06:58.720Z,99892.69
2019-02-14T20:09:28.311Z,99898.02
2019-02-14T20:11:58.050Z,99901.39
2019-02-14T20:14:27.725Z,99895.11
2019-02-14T20:16:57.379Z,99897.05
2019-02-14T20:19:26.994Z,99894.88
2019-02-14T20:21:56.686Z,99902.16
2019-02-14T20:24:26.476Z,99909.39
2019-02-14T20:26:56.098Z,99899.00
2019-02-14T20:29:25.754Z,99911.88
2019-02-14T20:31:55.401Z,99906.91
2019-02-14T20:34:25.265Z,99897.80
2019-02-14T20:36:54.937Z,99896.61
2019-02-14T20:39:24.518Z,99900.51
2019-02-14T20:41:54.125Z,99901.28
2019-02-14T20:44:23.786Z,99904.63
2019-02-14T20:46:53.404Z,99901.05
2019-02-14T20:49:23.134Z,99901.34
2019-02-14T20:51:52.817Z,99906.28
2019-02-14T20:54:22.416Z,99911.39
2019-02-14T20:56:52.136Z,99914.63
2019-02-14T20:59:21.774Z,99919.06
2019-02-14T21:01:51.386Z,99914.80
2019-02-14T21:04:22.085Z,99920.47
2019-02-14T21:06:52.768Z,99917.00
2019-02-14T21:09:22.376Z,99925.55
2019-02-14T21:11:54.694Z,99922.52
2019-02-14T21:14:23.361Z,99924.05
2019-02-14T21:16:53.008Z,99925.73
2019-02-14T21:19:22.654Z,99927.80
2019-02-14T21:24:28.881Z,99941.95
2019-02-14T21:26:58.508Z,99950.24
2019-02-14T21:29:28.120Z,99943.19
2019-02-14T21:31:57.794Z,99950.19
2019-02-14T21:34:27.444Z,99950.67
2019-02-14T21:36:57.092Z,99958.53
2019-02-14T21:39:26.835Z,99960.33
2019-02-14T21:42:17.438Z,99978.58
2019-02-14T21:44:27.803Z,99974.02
2019-02-14T21:46:57.485Z,99976.45
2019-02-14T21:49:27.106Z,99985.97
2019-02-14T21:51:56.760Z,99993.62
2019-02-14T21:54:26.520Z,99995.89
2019-02-14T21:56:56.186Z,99987.25
2019-02-14T21:59:25.806Z,99993.91
2019-02-14T22:01:55.467Z,99986.55
2019-02-14T22:04:25.097Z,99978.64
2019-02-14T22:06:54.662Z,99968.70
2019-02-14T22:09:24.348Z,99974.53
2019-02-14T22:11:53.972Z,99969.59
2019-02-14T22:14:23.604Z,99965.19
2019-02-14T22:16:53.251Z,99963.74
2019-02-14T22:19:22.841Z,99967.62
2019-02-14T22:21:52.461Z,99967.27
2019-02-14T22:24:22.153Z,99964.70
2019-02-14T22:26:51.722Z,99956.09
2019-02-14T22:29:21.335Z,99957.18
2019-02-14T22:31:50.998Z,99947.83
2019-02-14T22:34:20.639Z,99909.61
2019-02-14T22:36:50.232Z,99948.27
2019-02-14T22:39:19.930Z,99952.00
2019-02-14T22:41:49.553Z,99951.16
2019-02-14T22:44:19.185Z,99932.70
2019-02-14T22:46:48.821Z,99935.98
2019-02-14T22:49:18.427Z,99939.77
2019-02-14T22:51:48.036Z,99943.29
2019-02-14T22:54:17.699Z,99933.46
2019-02-14T22:56:47.482Z,99937.73
2019-02-14T22:59:17.119Z,99936.04
2019-02-14T23:02:25.880Z,99939.31
2019-02-14T23:04:55.920Z,99934.95
2019-02-14T23:07:25.562Z,99929.02
2019-02-14T23:10:15.939Z,99934.33
2019-02-14T23:12:45.629Z,99933.13
2019-02-14T23:18:04.034Z,99924.17
2019-02-14T23:20:33.632Z,99917.37
2019-02-14T23:23:04.033Z,99921.12
2019-02-14T23:25:33.942Z,99925.74
2019-02-14T23:28:03.552Z,99925.37
2019-02-14T23:30:33.129Z,99929.60
2019-02-14T23:33:03.273Z,99932.25
2019-02-14T23:35:32.921Z,99934.80
2019-02-14T23:38:02.530Z,99937.48
2019-02-14T23:40:32.174Z,99932.50
2019-02-14T23:43:04.755Z,99917.27
2019-02-14T23:45:33.196Z,99922.35
2019-02-14T23:48:02.871Z,99920.55
2019-02-14T23:50:32.589Z,99922.61
2019-02-14T23:53:02.199Z,99918.48
2019-02-14T23:55:31.884Z,99920.02
2019-02-14T23:58:01.470Z,99912.69
